sensor_id;sensor_type;location;lat;lon;timestamp;pressure;altitude;pressure_sealevel;temperature;humidity
31088;BME280;17745;55.914;37.554;2023-05-20T00:02:19;100173.88;;;12.96;46.49
31088;BME280;17745;55.914;37.554;2023-05-20T00:04:47;100179.00;;;13.03;46.45
31088;BME280;17745;55.914;37.554;2023-05-20T00:07:16;100171.84;;;13.04;46.51
31088;BME280;17745;55.914;37.554;2023-05-20T00:09:43;100179.00;;;13.03;46.62
31088;BME280;17745;55.914;37.554;2023-05-20T00:12:12;100165.66;;;12.98;46.70
31088;BME280;17745;55.914;37.554;2023-05-20T00:14:39;100171.78;;;12.98;46.72
31088;BME280;17745;55.914;37.554;2023-05-20T00:17:06;100173.22;;;13.06;46.63
31088;BME280;17745;55.914;37.554;2023-05-20T00:19:35;100161.47;;;12.85;47.11
31088;BME280;17745;55.914;37.554;2023-05-20T00:22:02;100168.72;;;12.90;47.08
31088;BME280;17745;55.914;37.554;2023-05-20T00:24:31;100174.50;;;13.04;46.84
31088;BME280;17745;55.914;37.554;2023-05-20T00:27:00;100165.09;;;12.96;47.13
31088;BME280;17745;55.914;37.554;2023-05-20T00:29:28;100159.03;;;13.00;47.04
31088;BME280;17745;55.914;37.554;2023-05-20T00:32:01;100176.56;;;12.79;47.67
31088;BME280;17745;55.914;37.554;2023-05-20T00:34:35;100176.88;;;12.49;48.49
31088;BME280;17745;55.914;37.554;2023-05-20T00:37:30;100162.94;;;12.76;47.86
31088;BME280;17745;55.914;37.554;2023-05-20T00:40:02;100175.81;;;12.84;47.64
31088;BME280;17745;55.914;37.554;2023-05-20T00:42:31;100164.72;;;12.87;47.67
31088;BME280;17745;55.914;37.554;2023-05-20T00:44:59;100172.75;;;12.75;48.06
31088;BME280;17745;55.914;37.554;2023-05-20T00:47:29;100167.53;;;12.80;47.94
31088;BME280;17745;55.914;37.554;2023-05-20T00:49:59;100159.06;;;12.83;47.89
31088;BME280;17745;55.914;37.554;2023-05-20T00:52:28;100177.66;;;12.49;48.81
31088;BME280;17745;55.914;37.554;2023-05-20T00:54:59;100173.09;;;12.62;48.48
31088;BME280;17745;55.914;37.554;2023-05-20T00:57:41;100174.06;;;12.72;48.25
31088;BME280;17745;55.914;37.554;2023-05-20T01:00:16;100166.09;;;12.55;48.86
31088;BME280;17745;55.914;37.554;2023-05-20T01:02:44;100176.47;;;12.57;48.81
31088;BME280;17745;55.914;37.554;2023-05-20T01:05:17;100166.19;;;12.61;48.81
31088;BME280;17745;55.914;37.554;2023-05-20T01:07:45;100170.53;;;12.50;49.16
31088;BME280;17745;55.914;37.554;2023-05-20T01:10:12;100167.38;;;12.53;49.15
31088;BME280;17745;55.914;37.554;2023-05-20T01:12:45;100177.72;;;12.20;49.96
31088;BME280;17745;55.914;37.554;2023-05-20T01:15:14;100161.75;;;12.03;50.51
31088;BME280;17745;55.914;37.554;2023-05-20T01:17:44;100159.00;;;11.98;50.82
31088;BME280;17745;55.914;37.554;2023-05-20T01:20:13;100164.75;;;12.24;50.24
31088;BME280;17745;55.914;37.554;2023-05-20T01:22:48;100170.91;;;12.24;50.33
31088;BME280;17745;55.914;37.554;2023-05-20T01:25:18;100164.28;;;12.10;50.62
31088;BME280;17745;55.914;37.554;2023-05-20T01:27:48;100172.91;;;12.17;50.67
31088;BME280;17745;55.914;37.554;2023-05-20T01:30:16;100167.28;;;12.30;50.41
31088;BME280;17745;55.914;37.554;2023-05-20T01:32:49;100161.94;;;12.13;50.90
31088;BME280;17745;55.914;37.554;2023-05-20T01:35:19;100177.94;;;12.01;51.42
31088;BME280;17745;55.914;37.554;2023-05-20T01:37:51;100166.28;;;12.20;50.95
31088;BME280;17745;55.914;37.554;2023-05-20T01:40:22;100177.41;;;12.34;50.69
31088;BME280;17745;55.914;37.554;2023-05-20T01:42:51;100166.69;;;12.11;51.24
31088;BME280;17745;55.914;37.554;2023-05-20T01:45:22;100180.31;;;12.15;51.26
31088;BME280;17745;55.914;37.554;2023-05-20T01:47:49;100178.25;;;11.64;52.69
31088;BME280;17745;55.914;37.554;2023-05-20T01:50:17;100179.16;;;11.99;51.81
31088;BME280;17745;55.914;37.554;2023-05-20T01:52:45;100174.00;;;12.04;51.73
31088;BME280;17745;55.914;37.554;2023-05-20T01:55:14;100180.53;;;11.72;52.73
31088;BME280;17745;55.914;37.554;2023-05-20T01:57:41;100172.91;;;12.17;51.60
31088;BME280;17745;55.914;37.554;2023-05-20T02:00:10;100179.09;;;12.23;51.59
31088;BME280;17745;55.914;37.554;2023-05-20T02:02:39;100173.94;;;12.16;51.81
31088;BME280;17745;55.914;37.554;2023-05-20T02:05:09;100175.63;;;12.05;52.17
31088;BME280;17745;55.914;37.554;2023-05-20T02:07:37;100178.38;;;11.98;52.43
31088;BME280;17745;55.914;37.554;2023-05-20T02:10:05;100180.75;;;12.12;52.10
31088;BME280;17745;55.914;37.554;2023-05-20T02:12:37;100184.03;;;12.31;51.64
31088;BME280;17745;55.914;37.554;2023-05-20T02:15:06;100185.56;;;12.44;51.39
31088;BME280;17745;55.914;37.554;2023-05-20T02:17:37;100173.47;;;12.19;52.00
31088;BME280;17745;55.914;37.554;2023-05-20T02:20:25;100175.72;;;12.10;52.15
31088;BME280;17745;55.914;37.554;2023-05-20T02:22:54;100177.59;;;12.27;51.87
31088;BME280;17745;55.914;37.554;2023-05-20T02:25:22;100178.78;;;12.19;52.03
31088;BME280;17745;55.914;37.554;2023-05-20T02:27:51;100186.09;;;12.00;52.70
31088;BME280;17745;55.914;37.554;2023-05-20T02:30:22;100170.22;;;11.88;53.09
31088;BME280;17745;55.914;37.554;2023-05-20T02:32:50;100160.09;;;11.85;53.13
31088;BME280;17745;55.914;37.554;2023-05-20T02:35:17;100185.00;;;11.84;53.40
31088;BME280;17745;55.914;37.554;2023-05-20T02:37:45;100181.81;;;11.99;53.01
31088;BME280;17745;55.914;37.554;2023-05-20T02:40:13;100181.16;;;12.04;53.03
31088;BME280;17745;55.914;37.554;2023-05-20T02:42:40;100190.97;;;11.91;53.40
31088;BME280;17745;55.914;37.554;2023-05-20T02:45:10;100186.97;;;11.89;53.54
31088;BME280;17745;55.914;37.554;2023-05-20T02:47:40;100185.81;;;11.84;53.87
31088;BME280;17745;55.914;37.554;2023-05-20T02:50:08;100185.03;;;12.13;53.13
31088;BME280;17745;55.914;37.554;2023-05-20T02:52:36;100176.66;;;12.04;53.42
31088;BME280;17745;55.914;37.554;2023-05-20T02:55:05;100170.97;;;12.29;52.86
31088;BME280;17745;55.914;37.554;2023-05-20T02:57:33;100178.63;;;12.26;53.07
31088;BME280;17745;55.914;37.554;2023-05-20T03:00:05;100172.50;;;12.25;53.15
31088;BME280;17745;55.914;37.554;2023-05-20T03:02:37;100172.25;;;11.98;53.94
31088;BME280;17745;55.914;37.554;2023-05-20T03:05:06;100170.88;;;12.07;53.85
31088;BME280;17745;55.914;37.554;2023-05-20T03:07:35;100179.69;;;12.25;53.45
31088;BME280;17745;55.914;37.554;2023-05-20T03:10:06;100171.81;;;11.89;54.47
31088;BME280;17745;55.914;37.554;2023-05-20T03:12:34;100172.44;;;12.20;53.67
31088;BME280;17745;55.914;37.554;2023-05-20T03:15:02;100194.16;;;12.34;53.46
31088;BME280;17745;55.914;37.554;2023-05-20T03:17:31;100178.84;;;12.24;53.76
31088;BME280;17745;55.914;37.554;2023-05-20T03:20:01;100172.22;;;11.81;54.92
31088;BME280;17745;55.914;37.554;2023-05-20T03:22:32;100185.78;;;12.25;53.85
31088;BME280;17745;55.914;37.554;2023-05-20T03:25:01;100173.75;;;12.52;53.29
31088;BME280;17745;55.914;37.554;2023-05-20T03:27:33;100193.41;;;12.22;54.20
31088;BME280;17745;55.914;37.554;2023-05-20T03:30:02;100170.38;;;12.56;53.32
31088;BME280;17745;55.914;37.554;2023-05-20T03:32:32;100172.56;;;12.13;54.33
31088;BME280;17745;55.914;37.554;2023-05-20T03:35:01;100174.66;;;12.11;54.50
31088;BME280;17745;55.914;37.554;2023-05-20T03:37:31;100190.25;;;12.08;54.78
31088;BME280;17745;55.914;37.554;2023-05-20T03:39:58;100185.06;;;12.47;53.84
31088;BME280;17745;55.914;37.554;2023-05-20T03:42:26;100186.75;;;12.36;54.24
31088;BME280;17745;55.914;37.554;2023-05-20T03:44:54;100185.56;;;12.78;53.35
31088;BME280;17745;55.914;37.554;2023-05-20T03:47:22;100188.31;;;12.83;53.22
31088;BME280;17745;55.914;37.554;2023-05-20T03:49:52;100180.00;;;12.97;53.04
31088;BME280;17745;55.914;37.554;2023-05-20T03:52:22;100187.09;;;12.91;53.09
31088;BME280;17745;55.914;37.554;2023-05-20T03:54:50;100180.63;;;13.04;52.85
31088;BME280;17745;55.914;37.554;2023-05-20T03:57:17;100175.53;;;13.20;52.74
31088;BME280;17745;55.914;37.554;2023-05-20T03:59:46;100191.22;;;12.48;54.26
31088;BME280;17745;55.914;37.554;2023-05-20T04:02:13;100184.94;;;12.08;55.23
31088;BME280;17745;55.914;37.554;2023-05-20T04:04:41;100197.78;;;12.62;54.10
31088;BME280;17745;55.914;37.554;2023-05-20T04:07:12;100185.13;;;13.04;53.20
31088;BME280;17745;55.914;37.554;2023-05-20T04:09:44;100189.66;;;12.69;54.12
31088;BME280;17745;55.914;37.554;2023-05-20T04:12:15;100185.66;;;12.83;53.83
31088;BME280;17745;55.914;37.554;2023-05-20T04:14:44;100170.81;;;12.53;54.44
31088;BME280;17745;55.914;37.554;2023-05-20T04:17:15;100180.16;;;12.39;55.10
31088;BME280;17745;55.914;37.554;2023-05-20T04:19:51;100173.44;;;13.05;53.65
31088;BME280;17745;55.914;37.554;2023-05-20T04:23:00;100182.09;;;12.43;55.15
31088;BME280;17745;55.914;37.554;2023-05-20T04:26:01;100178.97;;;12.47;55.13
31088;BME280;17745;55.914;37.554;2023-05-20T04:28:38;100182.56;;;12.92;54.10
31088;BME280;17745;55.914;37.554;2023-05-20T04:31:10;100176.28;;;12.98;53.98
31088;BME280;17745;55.914;37.554;2023-05-20T04:33:38;100177.47;;;13.47;53.00
31088;BME280;17745;55.914;37.554;2023-05-20T04:36:08;100177.22;;;13.70;52.62
31088;BME280;17745;55.914;37.554;2023-05-20T04:38:41;100179.91;;;13.98;52.39
31088;BME280;17745;55.914;37.554;2023-05-20T04:41:11;100179.13;;;13.75;52.35
31088;BME280;17745;55.914;37.554;2023-05-20T04:43:39;100170.38;;;13.35;53.04
31088;BME280;17745;55.914;37.554;2023-05-20T04:46:09;100181.12;;;13.63;52.45
31088;BME280;17745;55.914;37.554;2023-05-20T04:54:37;100181.53;;;13.77;52.13
31088;BME280;17745;55.914;37.554;2023-05-20T04:57:10;100170.19;;;13.59;52.47
31088;BME280;17745;55.914;37.554;2023-05-20T04:59:38;100175.69;;;13.35;53.02
31088;BME280;17745;55.914;37.554;2023-05-20T05:05:41;100182.13;;;13.56;52.65
31088;BME280;17745;55.914;37.554;2023-05-20T05:08:09;100188.66;;;13.49;52.63
31088;BME280;17745;55.914;37.554;2023-05-20T05:14:13;100194.31;;;13.13;53.74
31088;BME280;17745;55.914;37.554;2023-05-20T05:16:41;100200.63;;;12.72;54.62
31088;BME280;17745;55.914;37.554;2023-05-20T05:19:09;100176.13;;;12.53;55.37
31088;BME280;17745;55.914;37.554;2023-05-20T05:21:38;100172.25;;;12.95;54.51
31088;BME280;17745;55.914;37.554;2023-05-20T05:24:10;100171.47;;;13.56;53.06
31088;BME280;17745;55.914;37.554;2023-05-20T05:26:42;100185.84;;;13.55;52.98
31088;BME280;17745;55.914;37.554;2023-05-20T05:29:10;100179.19;;;13.80;52.45
31088;BME280;17745;55.914;37.554;2023-05-20T05:31:42;100163.31;;;14.18;51.64
31088;BME280;17745;55.914;37.554;2023-05-20T05:37:48;100152.41;;;14.52;50.63
31088;BME280;17745;55.914;37.554;2023-05-20T05:40:22;100164.31;;;13.84;52.02
31088;BME280;17745;55.914;37.554;2023-05-20T05:42:52;100169.41;;;13.86;52.18
31088;BME280;17745;55.914;37.554;2023-05-20T05:45:26;100172.06;;;14.41;51.01
31088;BME280;17745;55.914;37.554;2023-05-20T05:55:14;100163.03;;;14.47;50.23
31088;BME280;17745;55.914;37.554;2023-05-20T05:57:53;100170.38;;;14.67;50.00
31088;BME280;17745;55.914;37.554;2023-05-20T06:00:32;100180.47;;;14.98;49.46
31088;BME280;17745;55.914;37.554;2023-05-20T06:03:01;100188.53;;;14.70;49.67
31088;BME280;17745;55.914;37.554;2023-05-20T06:05:30;100170.94;;;14.69;49.68
31088;BME280;17745;55.914;37.554;2023-05-20T06:07:58;100164.16;;;14.24;50.76
31088;BME280;17745;55.914;37.554;2023-05-20T06:10:31;100180.66;;;14.21;51.17
31088;BME280;17745;55.914;37.554;2023-05-20T06:13:00;100165.16;;;14.78;49.92
31088;BME280;17745;55.914;37.554;2023-05-20T06:15:39;100181.81;;;15.00;49.51
31088;BME280;17745;55.914;37.554;2023-05-20T06:18:27;100169.88;;;15.82;48.39
31088;BME280;17745;55.914;37.554;2023-05-20T06:20:59;100168.34;;;15.97;47.52
31088;BME280;17745;55.914;37.554;2023-05-20T06:23:32;100172.34;;;16.20;47.17
31088;BME280;17745;55.914;37.554;2023-05-20T06:26:10;100156.59;;;15.93;46.64
31088;BME280;17745;55.914;37.554;2023-05-20T06:28:39;100168.34;;;14.80;48.86
31088;BME280;17745;55.914;37.554;2023-05-20T06:31:11;100181.62;;;15.18;48.10
31088;BME280;17745;55.914;37.554;2023-05-20T06:33:52;100167.19;;;15.08;48.11
31088;BME280;17745;55.914;37.554;2023-05-20T06:36:34;100175.94;;;15.52;47.26
31088;BME280;17745;55.914;37.554;2023-05-20T06:39:05;100187.72;;;15.61;46.80
31088;BME280;17745;55.914;37.554;2023-05-20T06:41:42;100173.31;;;15.09;47.47
31088;BME280;17745;55.914;37.554;2023-05-20T06:44:22;100164.69;;;15.44;46.80
31088;BME280;17745;55.914;37.554;2023-05-20T06:46:55;100183.41;;;15.01;47.54
31088;BME280;17745;55.914;37.554;2023-05-20T06:49:27;100163.41;;;14.99;47.53
31088;BME280;17745;55.914;37.554;2023-05-20T06:52:06;100156.94;;;14.84;47.87
31088;BME280;17745;55.914;37.554;2023-05-20T06:54:37;100184.44;;;15.49;46.37
31088;BME280;17745;55.914;37.554;2023-05-20T06:57:09;100167.53;;;15.22;45.55
31088;BME280;17745;55.914;37.554;2023-05-20T06:59:37;100146.03;;;15.55;44.25
31088;BME280;17745;55.914;37.554;2023-05-20T07:02:09;100169.88;;;15.77;43.83
31088;BME280;17745;55.914;37.554;2023-05-20T07:04:39;100164.88;;;16.38;43.15
31088;BME280;17745;55.914;37.554;2023-05-20T07:07:12;100172.56;;;15.87;41.94
31088;BME280;17745;55.914;37.554;2023-05-20T07:09:40;100164.91;;;16.48;40.82
31088;BME280;17745;55.914;37.554;2023-05-20T07:12:11;100161.06;;;16.96;39.60
31088;BME280;17745;55.914;37.554;2023-05-20T07:14:39;100163.28;;;16.32;38.86
31088;BME280;17745;55.914;37.554;2023-05-20T07:17:09;100163.25;;;15.90;38.70
31088;BME280;17745;55.914;37.554;2023-05-20T07:19:46;100158.09;;;15.68;39.42
31088;BME280;17745;55.914;37.554;2023-05-20T07:22:14;100169.16;;;16.18;39.05
31088;BME280;17745;55.914;37.554;2023-05-20T07:24:44;100177.13;;;17.01;38.20
31088;BME280;17745;55.914;37.554;2023-05-20T07:27:13;100171.28;;;17.04;38.14
31088;BME280;17745;55.914;37.554;2023-05-20T07:29:41;100168.53;;;17.20;37.56
31088;BME280;17745;55.914;37.554;2023-05-20T07:32:09;100166.13;;;17.18;37.31
31088;BME280;17745;55.914;37.554;2023-05-20T07:34:38;100156.00;;;17.70;36.83
31088;BME280;17745;55.914;37.554;2023-05-20T07:37:05;100167.56;;;18.06;36.46
31088;BME280;17745;55.914;37.554;2023-05-20T07:39:36;100158.59;;;17.86;35.89
31088;BME280;17745;55.914;37.554;2023-05-20T07:42:05;100164.12;;;17.50;36.67
31088;BME280;17745;55.914;37.554;2023-05-20T07:44:35;100166.91;;;17.84;36.60
31088;BME280;17745;55.914;37.554;2023-05-20T07:47:04;100163.00;;;17.61;36.62
31088;BME280;17745;55.914;37.554;2023-05-20T07:49:37;100133.00;;;17.04;37.77
31088;BME280;17745;55.914;37.554;2023-05-20T07:52:07;100178.78;;;16.14;39.33
31088;BME280;17745;55.914;37.554;2023-05-20T07:54:35;100164.34;;;16.41;39.19
31088;BME280;17745;55.914;37.554;2023-05-20T07:57:05;100173.63;;;15.86;40.65
31088;BME280;17745;55.914;37.554;2023-05-20T07:59:39;100157.94;;;16.11;40.36
31088;BME280;17745;55.914;37.554;2023-05-20T08:02:07;100145.94;;;16.19;40.71
31088;BME280;17745;55.914;37.554;2023-05-20T08:04:36;100162.69;;;16.97;39.62
31088;BME280;17745;55.914;37.554;2023-05-20T08:07:12;100167.28;;;16.60;40.31
31088;BME280;17745;55.914;37.554;2023-05-20T08:09:42;100170.47;;;16.83;39.66
31088;BME280;17745;55.914;37.554;2023-05-20T08:12:10;100165.91;;;17.04;39.89
31088;BME280;17745;55.914;37.554;2023-05-20T08:14:41;100172.81;;;17.26;39.53
31088;BME280;17745;55.914;37.554;2023-05-20T08:17:11;100162.25;;;17.50;39.33
31088;BME280;17745;55.914;37.554;2023-05-20T08:19:42;100153.94;;;17.52;39.25
31088;BME280;17745;55.914;37.554;2023-05-20T08:22:15;100149.63;;;16.64;40.59
31088;BME280;17745;55.914;37.554;2023-05-20T08:24:44;100158.03;;;17.39;39.60
31088;BME280;17745;55.914;37.554;2023-05-20T08:27:19;100146.19;;;17.55;39.20
31088;BME280;17745;55.914;37.554;2023-05-20T08:29:52;100169.66;;;16.93;40.27
31088;BME280;17745;55.914;37.554;2023-05-20T08:32:21;100164.72;;;17.36;39.39
31088;BME280;17745;55.914;37.554;2023-05-20T08:34:49;100151.44;;;17.71;38.57
31088;BME280;17745;55.914;37.554;2023-05-20T08:37:17;100159.66;;;17.29;39.04
31088;BME280;17745;55.914;37.554;2023-05-20T08:39:47;100171.78;;;17.11;39.61
31088;BME280;17745;55.914;37.554;2023-05-20T08:42:20;100116.75;;;16.74;40.47
31088;BME280;17745;55.914;37.554;2023-05-20T08:44:53;100156.88;;;16.33;41.29
31088;BME280;17745;55.914;37.554;2023-05-20T08:47:25;100147.62;;;17.32;39.69
31088;BME280;17745;55.914;37.554;2023-05-20T08:49:56;100161.84;;;17.12;39.67
31088;BME280;17745;55.914;37.554;2023-05-20T08:52:24;100156.47;;;17.78;38.66
31088;BME280;17745;55.914;37.554;2023-05-20T08:54:52;100160.56;;;16.94;39.44
31088;BME280;17745;55.914;37.554;2023-05-20T08:57:21;100144.56;;;16.63;40.37
31088;BME280;17745;55.914;37.554;2023-05-20T08:59:49;100153.34;;;16.94;39.82
31088;BME280;17745;55.914;37.554;2023-05-20T09:02:18;100156.75;;;17.81;38.79
31088;BME280;17745;55.914;37.554;2023-05-20T09:04:46;100146.16;;;18.00;38.37
31088;BME280;17745;55.914;37.554;2023-05-20T09:07:25;100148.78;;;18.46;37.59
31088;BME280;17745;55.914;37.554;2023-05-20T09:09:53;100144.31;;;17.51;38.16
31088;BME280;17745;55.914;37.554;2023-05-20T09:12:21;100155.50;;;18.08;37.45
31088;BME280;17745;55.914;37.554;2023-05-20T09:14:49;100156.41;;;18.63;36.88
31088;BME280;17745;55.914;37.554;2023-05-20T09:17:20;100169.63;;;18.54;36.88
31088;BME280;17745;55.914;37.554;2023-05-20T09:19:48;100153.31;;;18.50;36.90
31088;BME280;17745;55.914;37.554;2023-05-20T09:22:21;100171.28;;;18.50;37.03
31088;BME280;17745;55.914;37.554;2023-05-20T09:24:49;100139.34;;;18.53;36.96
31088;BME280;17745;55.914;37.554;2023-05-20T09:27:18;100163.22;;;18.79;36.52
31088;BME280;17745;55.914;37.554;2023-05-20T09:29:49;100159.16;;;19.11;36.16
31088;BME280;17745;55.914;37.554;2023-05-20T09:32:20;100146.00;;;19.10;35.89
31088;BME280;17745;55.914;37.554;2023-05-20T09:34:51;100147.41;;;17.74;37.33
31088;BME280;17745;55.914;37.554;2023-05-20T09:37:21;100161.44;;;18.40;36.73
31088;BME280;17745;55.914;37.554;2023-05-20T09:39:54;100163.41;;;18.58;36.46
31088;BME280;17745;55.914;37.554;2023-05-20T09:42:28;100165.72;;;18.41;36.50
31088;BME280;17745;55.914;37.554;2023-05-20T09:44:58;100167.72;;;17.80;36.91
31088;BME280;17745;55.914;37.554;2023-05-20T09:47:29;100148.75;;;17.76;36.91
31088;BME280;17745;55.914;37.554;2023-05-20T09:49:57;100151.09;;;17.83;36.87
31088;BME280;17745;55.914;37.554;2023-05-20T09:52:26;100166.59;;;17.91;36.58
31088;BME280;17745;55.914;37.554;2023-05-20T09:54:54;100158.50;;;17.96;36.75
31088;BME280;17745;55.914;37.554;2023-05-20T09:57:25;100173.69;;;18.46;36.33
31088;BME280;17745;55.914;37.554;2023-05-20T09:59:53;100180.59;;;18.87;36.07
31088;BME280;17745;55.914;37.554;2023-05-20T10:02:23;100171.66;;;19.21;35.40
31088;BME280;17745;55.914;37.554;2023-05-20T10:05:21;100170.00;;;19.25;35.26
31088;BME280;17745;55.914;37.554;2023-05-20T10:11:04;100162.06;;;18.61;35.44
31088;BME280;17745;55.914;37.554;2023-05-20T10:13:45;100167.56;;;18.75;35.26
31088;BME280;17745;55.914;37.554;2023-05-20T10:16:23;100148.53;;;19.01;34.93
31088;BME280;17745;55.914;37.554;2023-05-20T10:19:10;100160.34;;;19.00;34.97
31088;BME280;17745;55.914;37.554;2023-05-20T10:21:40;100164.88;;;19.29;34.74
31088;BME280;17745;55.914;37.554;2023-05-20T10:24:08;100163.38;;;19.18;34.75
31088;BME280;17745;55.914;37.554;2023-05-20T10:26:36;100174.22;;;19.32;34.70
31088;BME280;17745;55.914;37.554;2023-05-20T10:29:14;100175.13;;;19.22;34.63
31088;BME280;17745;55.914;37.554;2023-05-20T10:31:48;100174.22;;;19.32;34.16
31088;BME280;17745;55.914;37.554;2023-05-20T10:34:18;100184.59;;;19.38;34.26
31088;BME280;17745;55.914;37.554;2023-05-20T10:37:00;100175.44;;;19.20;34.38
31088;BME280;17745;55.914;37.554;2023-05-20T10:39:29;100196.81;;;19.01;34.66
31088;BME280;17745;55.914;37.554;2023-05-20T10:42:06;100177.19;;;19.06;34.49
31088;BME280;17745;55.914;37.554;2023-05-20T10:44:40;100177.38;;;19.14;34.45
31088;BME280;17745;55.914;37.554;2023-05-20T10:47:09;100181.47;;;18.77;34.83
31088;BME280;17745;55.914;37.554;2023-05-20T10:49:40;100195.16;;;18.46;35.09
31088;BME280;17745;55.914;37.554;2023-05-20T10:52:13;100180.44;;;18.43;35.22
31088;BME280;17745;55.914;37.554;2023-05-20T10:54:45;100179.84;;;18.17;35.43
31088;BME280;17745;55.914;37.554;2023-05-20T10:57:14;100184.53;;;18.36;35.40
31088;BME280;17745;55.914;37.554;2023-05-20T10:59:44;100175.00;;;17.69;36.68
31088;BME280;17745;55.914;37.554;2023-05-20T11:02:15;100166.06;;;17.84;36.57
31088;BME280;17745;55.914;37.554;2023-05-20T11:04:44;100157.41;;;16.50;38.77
31088;BME280;17745;55.914;37.554;2023-05-20T11:07:23;100198.56;;;16.39;39.15
31088;BME280;17745;55.914;37.554;2023-05-20T11:09:53;100205.78;;;16.64;38.84
31088;BME280;17745;55.914;37.554;2023-05-20T11:12:21;100191.62;;;16.53;38.67
31088;BME280;17745;55.914;37.554;2023-05-20T11:14:50;100174.78;;;15.32;40.16
31088;BME280;17745;55.914;37.554;2023-05-20T11:17:18;100185.78;;;14.98;40.75
31088;BME280;17745;55.914;37.554;2023-05-20T11:19:49;100214.03;;;15.42;40.12
31088;BME280;17745;55.914;37.554;2023-05-20T11:22:18;100199.56;;;15.91;39.22
31088;BME280;17745;55.914;37.554;2023-05-20T11:24:46;100197.97;;;15.90;39.45
31088;BME280;17745;55.914;37.554;2023-05-20T11:27:16;100203.88;;;16.18;39.05
31088;BME280;17745;55.914;37.554;2023-05-20T11:29:48;100194.28;;;16.12;38.80
31088;BME280;17745;55.914;37.554;2023-05-20T11:32:30;100193.44;;;16.01;38.94
31088;BME280;17745;55.914;37.554;2023-05-20T11:34:58;100192.13;;;16.04;38.71
31088;BME280;17745;55.914;37.554;2023-05-20T11:37:27;100195.09;;;16.43;38.06
31088;BME280;17745;55.914;37.554;2023-05-20T11:40:03;100200.41;;;16.90;37.35
31088;BME280;17745;55.914;37.554;2023-05-20T11:42:35;100194.81;;;16.61;37.71
31088;BME280;17745;55.914;37.554;2023-05-20T11:45:03;100197.75;;;16.49;37.77
31088;BME280;17745;55.914;37.554;2023-05-20T11:47:36;100204.44;;;16.77;37.56
31088;BME280;17745;55.914;37.554;2023-05-20T11:50:08;100190.78;;;17.15;37.13
31088;BME280;17745;55.914;37.554;2023-05-20T11:53:03;100190.78;;;16.94;37.13
31088;BME280;17745;55.914;37.554;2023-05-20T11:55:32;100192.03;;;17.33;36.61
31088;BME280;17745;55.914;37.554;2023-05-20T11:58:04;100189.75;;;17.71;36.44
31088;BME280;17745;55.914;37.554;2023-05-20T12:00:32;100170.34;;;17.85;35.92
31088;BME280;17745;55.914;37.554;2023-05-20T12:03:00;100180.84;;;17.81;35.62
31088;BME280;17745;55.914;37.554;2023-05-20T12:05:28;100183.56;;;17.71;35.63
31088;BME280;17745;55.914;37.554;2023-05-20T12:07:57;100189.31;;;17.43;36.10
31088;BME280;17745;55.914;37.554;2023-05-20T12:10:25;100176.88;;;17.74;35.85
31088;BME280;17745;55.914;37.554;2023-05-20T12:12:53;100193.59;;;17.44;36.24
31088;BME280;17745;55.914;37.554;2023-05-20T12:15:21;100189.87;;;17.96;35.67
31088;BME280;17745;55.914;37.554;2023-05-20T12:17:51;100183.72;;;18.35;35.32
31088;BME280;17745;55.914;37.554;2023-05-20T12:20:24;100180.66;;;18.77;34.94
31088;BME280;17745;55.914;37.554;2023-05-20T12:23:18;100176.56;;;18.60;34.64
31088;BME280;17745;55.914;37.554;2023-05-20T12:25:54;100187.78;;;18.92;34.13
31088;BME280;17745;55.914;37.554;2023-05-20T12:29:01;100175.13;;;19.22;33.80
31088;BME280;17745;55.914;37.554;2023-05-20T12:31:31;100169.09;;;19.11;33.80
31088;BME280;17745;55.914;37.554;2023-05-20T12:34:16;100138.56;;;18.77;34.01
31088;BME280;17745;55.914;37.554;2023-05-20T12:37:26;100186.72;;;18.28;34.77
31088;BME280;17745;55.914;37.554;2023-05-20T12:40:59;100181.88;;;18.65;34.29
31088;BME280;17745;55.914;37.554;2023-05-20T12:43:51;100184.53;;;18.95;34.11
31088;BME280;17745;55.914;37.554;2023-05-20T12:46:35;100169.81;;;19.17;33.92
31088;BME280;17745;55.914;37.554;2023-05-20T12:49:16;100171.94;;;19.20;33.99
31088;BME280;17745;55.914;37.554;2023-05-20T12:52:30;100185.19;;;19.11;34.24
31088;BME280;17745;55.914;37.554;2023-05-20T12:55:42;100186.41;;;18.65;34.60
31088;BME280;17745;55.914;37.554;2023-05-20T12:58:49;100172.59;;;18.82;34.49
31088;BME280;17745;55.914;37.554;2023-05-20T13:01:37;100165.44;;;18.96;34.19
31088;BME280;17745;55.914;37.554;2023-05-20T13:05:14;100151.81;;;19.41;33.68
31088;BME280;17745;55.914;37.554;2023-05-20T13:08:10;100168.34;;;19.29;33.59
31088;BME280;17745;55.914;37.554;2023-05-20T13:11:08;100169.00;;;19.40;33.54
31088;BME280;17745;55.914;37.554;2023-05-20T13:17:27;100173.56;;;18.62;34.45
31088;BME280;17745;55.914;37.554;2023-05-20T13:20:38;100163.53;;;18.72;34.44
31088;BME280;17745;55.914;37.554;2023-05-20T13:23:17;100170.75;;;18.13;35.24
31088;BME280;17745;55.914;37.554;2023-05-20T13:26:07;100169.09;;;18.52;34.79
31088;BME280;17745;55.914;37.554;2023-05-20T13:28:47;100174.59;;;18.66;34.65
31088;BME280;17745;55.914;37.554;2023-05-20T13:31:54;100174.78;;;18.45;35.02
31088;BME280;17745;55.914;37.554;2023-05-20T13:34:45;100166.53;;;18.36;35.14
31088;BME280;17745;55.914;37.554;2023-05-20T13:37:27;100168.25;;;18.56;35.05
31088;BME280;17745;55.914;37.554;2023-05-20T13:40:13;100172.59;;;18.82;34.84
31088;BME280;17745;55.914;37.554;2023-05-20T13:43:07;100167.19;;;18.23;35.38